Time;durP1;ratioP1;P1;durP2;ratioP2;P2;SDS_P1;SDS_P2;PMS_P1;PMS_P2;Temp;Humidity;BMP_temperature;BMP_pressure;BME280_temperature;BME280_humidity;BME280_pressure;Samples;Min_cycle;Max_cycle;Signal;HPM_P1;HPM_P2
2022/01/26 00:06:44;;;;;;;58.43;38.63;;;3.20;99.90;;;;;;5046857;28;20178;-69
2022/01/26 00:09:11;;;;;;;52.80;35.27;;;3.20;99.90;;;;;;5030247;28;20425;-70
2022/01/26 00:11:38;;;;;;;64.20;38.60;;;3.10;99.90;;;;;;5046316;28;20433;-69
2022/01/26 00:14:11;;;;;;;56.00;37.20;;;3.10;99.90;;;;;;5046482;28;20501;-70
2022/01/26 00:16:40;;;;;;;45.57;32.50;;;3.20;99.90;;;;;;5028608;28;20474;-70
2022/01/26 00:19:09;;;;;;;52.03;34.53;;;3.20;99.90;;;;;;5046652;28;20419;-70
2022/01/26 00:21:44;;;;;;;53.43;36.20;;;3.20;99.90;;;;;;5046090;28;20437;-71
2022/01/26 00:29:32;;;;;;;50.10;34.70;;;3.30;99.90;;;;;;5045613;28;20401;-70
2022/01/26 00:40:21;;;;;;;50.90;35.90;;;3.30;99.90;;;;;;5046782;28;20515;-70
2022/01/26 00:42:49;;;;;;;52.30;33.50;;;3.20;99.90;;;;;;5046145;28;20409;-70
2022/01/26 00:45:20;;;;;;;49.60;33.70;;;3.20;99.90;;;;;;5045989;28;20444;-71
2022/01/26 00:47:46;;;;;;;59.93;37.60;;;3.30;99.90;;;;;;5046313;28;20423;-70
2022/01/26 00:50:12;;;;;;;58.57;39.53;;;3.40;99.90;;;;;;5034397;28;20449;-71
2022/01/26 00:52:40;;;;;;;70.97;41.90;;;3.30;99.90;;;;;;5046272;28;20287;-70
2022/01/26 00:55:09;;;;;;;77.23;42.90;;;3.40;99.90;;;;;;5045796;28;20513;-70
2022/01/26 00:57:34;;;;;;;62.57;38.00;;;3.20;99.90;;;;;;5045404;28;20412;-70
2022/01/26 01:00:01;;;;;;;57.37;37.80;;;3.20;99.90;;;;;;5045926;28;20429;-71
2022/01/26 01:02:27;;;;;;;76.00;42.90;;;3.30;99.90;;;;;;5045794;28;20650;-70
2022/01/26 01:04:55;;;;;;;72.57;40.90;;;3.10;99.90;;;;;;5045485;28;21448;-69
2022/01/26 01:07:23;;;;;;;75.67;44.13;;;2.90;99.90;;;;;;5046011;28;20414;-70
2022/01/26 01:09:48;;;;;;;110.30;49.10;;;3.00;99.90;;;;;;5045497;28;20417;-68
2022/01/26 01:12:14;;;;;;;69.27;41.20;;;2.90;99.90;;;;;;5045627;28;20462;-69
2022/01/26 01:14:42;;;;;;;73.10;43.63;;;2.90;99.90;;;;;;5045466;28;20186;-69
2022/01/26 01:17:12;;;;;;;73.70;42.17;;;3.00;99.90;;;;;;5045396;28;20181;-69
2022/01/26 01:19:44;;;;;;;106.53;50.47;;;3.10;99.90;;;;;;5045480;28;20417;-69
2022/01/26 01:27:47;;;;;;;68.50;40.87;;;2.90;99.90;;;;;;5045161;28;20413;-69
2022/01/26 01:35:43;;;;;;;62.77;37.57;;;2.80;99.90;;;;;;5010668;28;20517;-70
2022/01/26 01:38:14;;;;;;;85.10;41.43;;;2.90;99.90;;;;;;5044981;28;20405;-70
2022/01/26 01:40:42;;;;;;;53.33;32.33;;;2.90;99.90;;;;;;5044681;28;20452;-71
2022/01/26 01:43:09;;;;;;;61.10;36.60;;;2.90;99.90;;;;;;5044775;28;20916;-69
2022/01/26 01:45:45;;;;;;;62.67;38.77;;;2.90;99.90;;;;;;5043301;28;20428;-70
2022/01/26 01:48:14;;;;;;;58.27;35.30;;;2.80;99.90;;;;;;5044674;28;20647;-71
2022/01/26 01:50:42;;;;;;;56.27;34.93;;;2.80;99.90;;;;;;5044258;28;20449;-71
2022/01/26 01:53:09;;;;;;;72.90;40.87;;;2.90;99.90;;;;;;5044940;28;20413;-70
2022/01/26 01:55:47;;;;;;;65.53;37.80;;;2.80;99.90;;;;;;5026281;28;20438;-71
2022/01/26 01:58:13;;;;;;;68.90;40.60;;;2.70;99.90;;;;;;5044228;28;20404;-70
2022/01/26 02:00:39;;;;;;;56.40;36.10;;;2.60;99.90;;;;;;5044547;28;20494;-73
2022/01/26 02:03:05;;;;;;;61.67;38.03;;;2.60;99.90;;;;;;5044536;28;20231;-71
2022/01/26 02:05:30;;;;;;;68.37;37.20;;;2.50;99.90;;;;;;5044235;28;20187;-69
2022/01/26 02:07:58;;;;;;;65.93;38.00;;;2.60;99.90;;;;;;5026653;28;20417;-69
2022/01/26 02:10:24;;;;;;;59.83;35.50;;;2.60;99.90;;;;;;5044280;28;20674;-71
2022/01/26 02:12:58;;;;;;;79.40;40.90;;;2.60;99.90;;;;;;5026075;28;20425;-71
2022/01/26 02:15:32;;;;;;;52.40;31.37;;;2.60;99.90;;;;;;5044106;28;20405;-70
2022/01/26 02:53:47;;;;;;;60.03;31.47;;;2.00;99.90;;;;;;5044019;28;20425;-69
2022/01/26 02:56:22;;;;;;;46.13;30.93;;;1.80;99.90;;;;;;5043980;28;20265;-70
2022/01/26 03:07:01;;;;;;;49.23;27.70;;;2.20;99.90;;;;;;5043234;28;20291;-72
2022/01/26 03:09:32;;;;;;;39.97;27.23;;;2.20;99.90;;;;;;5043367;28;20496;-69
2022/01/26 03:12:00;;;;;;;36.13;24.70;;;2.20;99.90;;;;;;5043244;28;20519;-69
2022/01/26 03:17:44;;;;;;;45.93;30.90;;;2.50;99.90;;;;;;5043960;28;20413;-70
2022/01/26 03:19:54;;;;;;;44.20;28.10;;;2.60;99.90;;;;;;5042890;28;20799;-69
2022/01/26 03:30:50;;;;;;;35.47;23.30;;;2.30;99.90;;;;;;5043403;28;20428;-70
2022/01/26 03:36:02;;;;;;;35.30;23.90;;;2.50;99.90;;;;;;5043798;28;20828;-69
2022/01/26 03:38:41;;;;;;;38.70;23.80;;;2.30;99.90;;;;;;5046450;28;20935;-68
2022/01/26 03:41:27;;;;;;;32.13;21.90;;;2.30;99.90;;;;;;5047295;28;20432;-70
2022/01/26 03:43:53;;;;;;;36.30;22.90;;;2.20;99.90;;;;;;5047241;28;20905;-69
2022/01/26 03:46:19;;;;;;;36.30;23.30;;;2.30;99.90;;;;;;5046890;28;20988;-71
2022/01/26 03:48:44;;;;;;;33.90;23.70;;;2.30;99.90;;;;;;5043123;28;20182;-71
2022/01/26 03:51:10;;;;;;;41.13;24.50;;;2.30;99.90;;;;;;5048620;28;20442;-71
2022/01/26 03:53:36;;;;;;;31.93;23.20;;;2.10;99.90;;;;;;5050190;28;20587;-70
2022/01/26 03:56:01;;;;;;;37.00;23.37;;;2.20;99.90;;;;;;5049687;28;20228;-70
2022/01/26 03:58:27;;;;;;;39.73;25.63;;;2.00;99.90;;;;;;5049094;28;20182;-71
2022/01/26 04:00:53;;;;;;;40.63;25.33;;;1.80;99.90;;;;;;5047298;28;20195;-70
2022/01/26 04:03:19;;;;;;;36.47;22.50;;;1.90;99.90;;;;;;5047292;28;20638;-71
2022/01/26 04:05:44;;;;;;;39.97;25.00;;;1.90;99.90;;;;;;5047469;28;20476;-71
2022/01/26 04:08:16;;;;;;;37.87;24.27;;;1.90;99.90;;;;;;5046825;28;20270;-71
2022/01/26 04:13:11;;;;;;;45.63;26.97;;;2.10;99.90;;;;;;5046983;28;20412;-69
2022/01/26 04:15:37;;;;;;;48.43;28.10;;;2.20;99.90;;;;;;5046848;28;20427;-70
2022/01/26 04:18:06;;;;;;;40.50;24.10;;;2.10;99.90;;;;;;5046604;28;20175;-69
2022/01/26 04:20:37;;;;;;;41.27;22.47;;;2.10;99.90;;;;;;5045934;28;20462;-69
2022/01/26 04:25:43;;;;;;;50.23;28.60;;;2.10;99.90;;;;;;5046488;28;20504;-69
2022/01/26 04:28:15;;;;;;;37.50;24.03;;;2.10;99.90;;;;;;5046437;28;20409;-70
2022/01/26 04:30:40;;;;;;;51.03;26.53;;;2.00;99.90;;;;;;5046304;28;20441;-70
2022/01/26 04:33:07;;;;;;;49.93;28.13;;;2.10;99.90;;;;;;5046720;28;20466;-70
2022/01/26 04:35:33;;;;;;;51.00;28.07;;;2.00;99.90;;;;;;5046035;28;20174;-69
2022/01/26 04:40:35;;;;;;;45.47;26.33;;;1.90;99.90;;;;;;5046164;28;20802;-68
2022/01/26 04:43:06;;;;;;;37.67;23.60;;;2.10;99.90;;;;;;5046205;28;20416;-70
2022/01/26 04:45:31;;;;;;;41.63;24.93;;;2.10;99.90;;;;;;5044556;28;20463;-69
2022/01/26 04:47:57;;;;;;;52.50;26.07;;;2.10;99.90;;;;;;5045138;28;20512;-69
2022/01/26 04:50:23;;;;;;;43.93;26.37;;;1.90;99.90;;;;;;5039313;28;20221;-70
2022/01/26 04:52:48;;;;;;;41.03;24.83;;;2.00;99.90;;;;;;5027589;28;20209;-68
2022/01/26 04:55:15;;;;;;;52.20;30.60;;;2.00;99.90;;;;;;5045571;28;20517;-69
2022/01/26 04:57:40;;;;;;;45.03;28.33;;;2.00;99.90;;;;;;5045870;28;20186;-69
2022/01/26 05:00:08;;;;;;;46.17;26.67;;;2.10;99.90;;;;;;5045444;28;20449;-70
2022/01/26 05:02:34;;;;;;;50.73;27.20;;;2.10;99.90;;;;;;5031144;28;20537;-69
2022/01/26 05:05:00;;;;;;;57.97;30.87;;;2.20;99.90;;;;;;5046101;28;20468;-70
2022/01/26 05:07:25;;;;;;;39.37;24.87;;;2.20;99.90;;;;;;5045544;28;20965;-70
2022/01/26 05:09:51;;;;;;;41.70;25.83;;;2.20;99.90;;;;;;5045760;28;20257;-69
2022/01/26 05:12:17;;;;;;;43.80;25.73;;;2.30;99.90;;;;;;5045414;28;20677;-68
2022/01/26 05:14:45;;;;;;;43.97;26.37;;;2.20;99.90;;;;;;5045472;28;20206;-71
2022/01/26 05:17:13;;;;;;;40.10;23.10;;;2.10;99.90;;;;;;5045520;28;20507;-69
2022/01/26 05:19:38;;;;;;;43.20;25.13;;;2.10;99.90;;;;;;5045161;28;20412;-69
2022/01/26 05:22:04;;;;;;;61.30;27.67;;;2.10;99.90;;;;;;5044911;28;20940;-69
2022/01/26 05:24:30;;;;;;;46.57;25.60;;;2.20;99.90;;;;;;5027038;28;20238;-70
2022/01/26 05:26:56;;;;;;;46.37;26.00;;;2.30;99.90;;;;;;5027154;28;20463;-71
2022/01/26 05:29:22;;;;;;;44.60;26.97;;;2.40;99.90;;;;;;5044838;28;20798;-68
2022/01/26 05:31:47;;;;;;;43.20;24.67;;;2.20;99.90;;;;;;5044910;28;20194;-69
2022/01/26 05:34:13;;;;;;;46.70;27.57;;;2.40;99.90;;;;;;5045326;28;20421;-69
2022/01/26 05:36:38;;;;;;;47.27;26.47;;;2.30;99.90;;;;;;5043924;28;20634;-69
2022/01/26 05:39:04;;;;;;;48.83;27.37;;;2.30;99.90;;;;;;5044975;28;20179;-70
2022/01/26 05:41:30;;;;;;;45.93;25.07;;;2.20;99.90;;;;;;5045047;28;20757;-70
2022/01/26 05:43:59;;;;;;;55.87;28.10;;;2.30;99.90;;;;;;5044561;28;20456;-70
2022/01/26 05:47:13;;;;;;;44.47;28.40;;;2.40;99.90;;;;;;5044704;28;20677;-69
2022/01/26 05:49:16;;;;;;;43.03;26.13;;;2.20;99.90;;;;;;5036689;28;20848;-69
2022/01/26 05:51:45;;;;;;;38.50;25.50;;;2.10;99.90;;;;;;5061391;22;20516;-74
2022/01/26 05:54:11;;;;;;;47.53;28.53;;;2.10;99.90;;;;;;5045011;28;20413;-74
2022/01/26 05:56:37;;;;;;;47.07;25.90;;;2.10;99.90;;;;;;5030933;28;20508;-73
2022/01/26 05:59:03;;;;;;;40.43;25.40;;;2.10;99.90;;;;;;5035562;28;20421;-73
2022/01/26 06:01:29;;;;;;;47.67;31.13;;;2.20;99.90;;;;;;5045054;28;20433;-73
2022/01/26 06:03:54;;;;;;;43.10;26.57;;;2.30;99.90;;;;;;5045132;28;20456;-75
2022/01/26 06:06:20;;;;;;;44.00;25.10;;;2.30;99.90;;;;;;5044496;28;20189;-74
2022/01/26 06:08:47;;;;;;;49.97;30.40;;;2.30;99.90;;;;;;5044824;28;20557;-74
2022/01/26 06:11:12;;;;;;;45.00;26.57;;;2.30;99.90;;;;;;5029325;28;20524;-75
2022/01/26 06:13:38;;;;;;;52.33;29.93;;;2.20;99.90;;;;;;5044527;28;20963;-74
2022/01/26 06:16:04;;;;;;;46.00;27.03;;;2.00;99.90;;;;;;5044538;28;20205;-74
2022/01/26 06:18:30;;;;;;;37.43;24.80;;;2.20;99.90;;;;;;5038872;28;20265;-74
2022/01/26 06:20:56;;;;;;;45.47;27.20;;;2.20;99.90;;;;;;5044386;28;20512;-74
2022/01/26 06:23:24;;;;;;;46.73;28.30;;;2.30;99.90;;;;;;5039093;28;20245;-73
2022/01/26 06:25:52;;;;;;;47.10;28.70;;;2.30;99.90;;;;;;5044449;28;20198;-74
2022/01/26 06:28:17;;;;;;;52.00;30.40;;;2.30;99.90;;;;;;5044276;28;20466;-73
2022/01/26 06:30:47;;;;;;;49.93;29.33;;;2.40;99.90;;;;;;5043979;28;21336;-74
2022/01/26 06:33:13;;;;;;;43.83;26.37;;;2.60;99.90;;;;;;5031510;28;20214;-73
2022/01/26 06:35:40;;;;;;;43.37;27.63;;;2.40;99.90;;;;;;5044029;28;20417;-74
2022/01/26 06:38:05;;;;;;;46.53;26.80;;;2.50;99.90;;;;;;5044283;28;20409;-74
2022/01/26 06:40:31;;;;;;;48.93;26.03;;;2.50;99.90;;;;;;5033022;28;21021;-74
2022/01/26 06:43:01;;;;;;;43.27;27.83;;;2.50;99.90;;;;;;5044665;28;20178;-73
2022/01/26 06:45:36;;;;;;;44.33;26.93;;;2.60;99.90;;;;;;5043647;28;20189;-74
2022/01/26 06:50:37;;;;;;;41.20;25.10;;;2.40;99.90;;;;;;5043859;28;21302;-73
2022/01/26 06:53:03;;;;;;;39.13;26.00;;;2.40;99.90;;;;;;5044309;28;20412;-74
2022/01/26 06:55:29;;;;;;;45.40;26.53;;;2.20;99.90;;;;;;5044064;28;20424;-74
2022/01/26 06:57:55;;;;;;;48.50;26.20;;;2.30;99.90;;;;;;5043979;28;21037;-75
2022/01/26 07:00:21;;;;;;;42.30;25.53;;;2.20;99.90;;;;;;5035401;28;20183;-74
2022/01/26 07:02:46;;;;;;;37.87;24.47;;;2.20;99.90;;;;;;5043906;28;20932;-75
2022/01/26 07:05:13;;;;;;;48.37;27.13;;;2.30;99.90;;;;;;5044086;28;20546;-73
2022/01/26 07:07:39;;;;;;;37.57;22.43;;;2.20;99.90;;;;;;5043246;28;20227;-72
2022/01/26 07:10:05;;;;;;;38.93;25.03;;;2.20;99.90;;;;;;5044767;28;20416;-73
2022/01/26 07:12:31;;;;;;;46.07;26.43;;;2.40;99.90;;;;;;5048197;28;20409;-74
2022/01/26 07:23:05;;;;;;;40.67;24.50;;;2.10;99.90;;;;;;5047884;28;20409;-74
2022/01/26 07:25:31;;;;;;;36.10;24.53;;;2.00;99.90;;;;;;5047779;28;20449;-74
2022/01/26 07:27:57;;;;;;;35.63;25.73;;;2.10;99.90;;;;;;5036606;28;20423;-74
2022/01/26 07:30:23;;;;;;;34.73;23.17;;;1.90;99.90;;;;;;5032410;28;20860;-73
2022/01/26 07:32:49;;;;;;;36.50;22.87;;;2.00;99.90;;;;;;5047829;28;20466;-74
2022/01/26 07:35:15;;;;;;;37.87;24.30;;;2.10;99.90;;;;;;5042758;28;20200;-73
2022/01/26 07:37:43;;;;;;;38.47;24.57;;;2.10;99.90;;;;;;5047561;28;20186;-74
2022/01/26 07:40:09;;;;;;;40.97;23.57;;;2.10;99.90;;;;;;5047554;28;20289;-74
2022/01/26 07:42:36;;;;;;;42.43;26.67;;;2.10;99.90;;;;;;5047655;28;20900;-74
2022/01/26 07:45:05;;;;;;;41.30;26.33;;;2.10;99.90;;;;;;5047570;28;21065;-74
2022/01/26 07:47:31;;;;;;;42.37;25.23;;;2.00;99.90;;;;;;5047640;28;20427;-73
2022/01/26 07:50:03;;;;;;;43.67;25.83;;;2.20;99.90;;;;;;5044113;28;20754;-74
2022/01/26 07:52:33;;;;;;;38.60;23.80;;;2.20;99.90;;;;;;5047059;28;20837;-74
2022/01/26 07:54:59;;;;;;;32.13;21.93;;;2.40;99.90;;;;;;5035582;28;20451;-74
2022/01/26 07:57:26;;;;;;;37.40;25.80;;;2.40;99.90;;;;;;5047469;28;20416;-74
2022/01/26 07:59:53;;;;;;;37.43;23.60;;;2.50;99.90;;;;;;5035659;28;20225;-74
2022/01/26 08:02:21;;;;;;;39.00;25.70;;;2.50;99.90;;;;;;5046740;28;20515;-73
2022/01/26 08:04:46;;;;;;;37.47;25.00;;;2.60;99.90;;;;;;5032269;28;20459;-74
2022/01/26 08:07:12;;;;;;;37.63;24.50;;;2.60;99.90;;;;;;5046832;28;20783;-72
2022/01/26 08:09:43;;;;;;;35.90;23.00;;;2.50;99.90;;;;;;5046732;28;20269;-73
2022/01/26 08:12:14;;;;;;;42.30;28.33;;;2.50;99.90;;;;;;5047106;28;21011;-73
2022/01/26 08:14:40;;;;;;;39.63;26.70;;;2.40;99.90;;;;;;5046941;28;20996;-74
2022/01/26 08:17:06;;;;;;;34.43;24.97;;;2.50;99.90;;;;;;5037397;28;20511;-74
2022/01/26 08:19:32;;;;;;;32.70;22.97;;;2.60;99.90;;;;;;5036313;28;20799;-74
2022/01/26 08:22:00;;;;;;;39.03;24.23;;;2.70;99.90;;;;;;5045878;28;20447;-73
2022/01/26 08:24:27;;;;;;;38.50;24.90;;;2.50;99.90;;;;;;5046880;28;20194;-73
2022/01/26 08:26:55;;;;;;;34.17;23.10;;;2.30;99.90;;;;;;5046612;28;20421;-73
2022/01/26 08:29:29;;;;;;;39.53;24.50;;;2.50;99.90;;;;;;5045943;28;20416;-72
2022/01/26 08:31:54;;;;;;;41.00;25.73;;;2.80;99.90;;;;;;5046636;28;20425;-73
2022/01/26 08:34:20;;;;;;;38.17;25.53;;;2.60;99.90;;;;;;5038338;28;20417;-74
2022/01/26 08:36:46;;;;;;;37.10;24.60;;;2.60;99.90;;;;;;5046310;28;20270;-74
2022/01/26 08:39:12;;;;;;;36.93;24.47;;;2.50;99.90;;;;;;5046400;28;20844;-73
2022/01/26 08:41:38;;;;;;;39.73;25.63;;;2.50;99.90;;;;;;5034358;28;20206;-75
2022/01/26 08:44:04;;;;;;;49.20;29.20;;;2.40;99.90;;;;;;5046016;28;20449;-75
2022/01/26 08:46:30;;;;;;;43.13;26.63;;;2.30;99.90;;;;;;5046166;28;20417;-74
2022/01/26 08:48:56;;;;;;;42.57;27.30;;;2.20;99.90;;;;;;5046753;28;20439;-75
2022/01/26 08:51:21;;;;;;;40.37;25.60;;;2.40;99.90;;;;;;5045883;28;20215;-75
2022/01/26 08:53:47;;;;;;;42.43;25.87;;;2.30;99.90;;;;;;5046293;28;20428;-75
2022/01/26 08:56:13;;;;;;;41.50;25.53;;;2.40;99.90;;;;;;5046004;28;20431;-73
2022/01/26 08:58:39;;;;;;;39.20;26.17;;;2.60;99.90;;;;;;5045460;28;20662;-75
2022/01/26 09:01:05;;;;;;;35.80;25.57;;;2.60;99.90;;;;;;5038797;28;20441;-71
2022/01/26 09:03:37;;;;;;;36.40;23.53;;;2.50;99.90;;;;;;5045725;28;20178;-71
2022/01/26 09:06:03;;;;;;;45.20;25.67;;;2.30;99.90;;;;;;5045187;28;20177;-74
2022/01/26 09:08:29;;;;;;;43.67;25.70;;;2.50;99.90;;;;;;5033985;28;20420;-74
2022/01/26 09:11:00;;;;;;;37.93;25.17;;;2.60;99.90;;;;;;5045857;28;20793;-73
2022/01/26 09:13:26;;;;;;;41.50;24.87;;;2.70;99.90;;;;;;5047149;28;20863;-73
2022/01/26 09:15:53;;;;;;;46.37;25.50;;;2.70;99.90;;;;;;5035755;28;20443;-71
2022/01/26 09:18:31;;;;;;;46.40;27.23;;;2.70;99.90;;;;;;5046900;28;20435;-75
2022/01/26 09:20:56;;;;;;;51.60;28.77;;;2.70;99.90;;;;;;5046128;28;20428;-72
2022/01/26 09:23:22;;;;;;;43.20;28.60;;;2.60;99.90;;;;;;5045763;28;20413;-73
2022/01/26 09:25:48;;;;;;;40.07;23.93;;;2.70;99.90;;;;;;5045369;28;20214;-73
2022/01/26 09:28:13;;;;;;;52.70;27.50;;;2.70;99.90;;;;;;5045570;28;20476;-74
2022/01/26 09:30:39;;;;;;;45.27;27.00;;;2.50;99.90;;;;;;5045478;28;20321;-73
2022/01/26 09:33:04;;;;;;;42.87;26.23;;;2.60;99.90;;;;;;5044560;28;20517;-73
2022/01/26 09:35:30;;;;;;;48.47;27.27;;;2.60;99.90;;;;;;5044852;28;20209;-72
2022/01/26 09:37:56;;;;;;;50.73;28.23;;;2.60;99.90;;;;;;5044734;28;20585;-72
2022/01/26 09:40:22;;;;;;;40.10;24.60;;;2.70;99.90;;;;;;5045429;28;20561;-72
2022/01/26 09:42:49;;;;;;;39.80;24.33;;;2.50;99.90;;;;;;5041173;28;20277;-70
2022/01/26 09:45:15;;;;;;;40.20;25.50;;;2.60;99.90;;;;;;5044694;28;20479;-70
2022/01/26 09:47:45;;;;;;;36.93;22.70;;;2.60;99.90;;;;;;5046133;28;20409;-72
2022/01/26 09:50:11;;;;;;;40.50;24.83;;;2.70;99.90;;;;;;5045351;28;20428;-73
2022/01/26 09:52:44;;;;;;;38.40;22.43;;;2.80;99.90;;;;;;5044574;28;20455;-74
2022/01/26 09:55:10;;;;;;;33.47;21.30;;;2.60;99.90;;;;;;5044740;28;20178;-73
2022/01/26 09:57:38;;;;;;;38.00;23.80;;;2.90;99.90;;;;;;5044771;28;20413;-73
2022/01/26 10:00:05;;;;;;;35.80;23.67;;;3.20;99.90;;;;;;5044605;28;20201;-74
2022/01/26 10:02:33;;;;;;;34.30;22.30;;;3.20;99.90;;;;;;5044688;28;20405;-73
2022/01/26 10:05:06;;;;;;;39.43;24.80;;;3.30;99.90;;;;;;5044331;28;20451;-72
2022/01/26 10:15:41;;;;;;;40.07;24.17;;;2.90;99.90;;;;;;5044611;28;20415;-70
2022/01/26 10:18:14;;;;;;;39.93;25.30;;;3.10;99.90;;;;;;5034666;28;20440;-72
2022/01/26 10:20:51;;;;;;;36.47;22.57;;;3.10;99.90;;;;;;5044481;28;20436;-70
2022/01/26 10:23:22;;;;;;;40.73;25.33;;;2.90;99.90;;;;;;5043578;28;20440;-70
2022/01/26 10:26:12;;;;;;;42.30;25.07;;;3.10;99.90;;;;;;5043911;28;20441;-72
2022/01/26 10:28:55;;;;;;;37.57;23.47;;;2.80;99.90;;;;;;5044251;28;20424;-74
2022/01/26 10:31:29;;;;;;;35.70;23.40;;;3.00;99.90;;;;;;5037062;28;20448;-73
2022/01/26 10:34:02;;;;;;;39.10;24.63;;;3.10;99.90;;;;;;5037273;28;20511;-70
2022/01/26 10:36:57;;;;;;;37.70;22.60;;;3.30;99.90;;;;;;5043608;28;20897;-71
2022/01/26 10:39:35;;;;;;;31.77;20.30;;;3.30;99.90;;;;;;5043355;28;20496;-70
2022/01/26 10:42:07;;;;;;;37.10;22.10;;;3.30;99.90;;;;;;5025785;28;20867;-73
2022/01/26 10:44:40;;;;;;;36.07;22.60;;;3.40;99.90;;;;;;5043362;28;20476;-70
2022/01/26 10:47:07;;;;;;;31.83;21.10;;;3.40;99.90;;;;;;5043839;28;20459;-73
2022/01/26 10:52:21;;;;;;;31.77;21.00;;;3.30;99.90;;;;;;5043594;28;20807;-74
2022/01/26 10:54:48;;;;;;;33.23;21.10;;;3.50;99.90;;;;;;5044219;28;20452;-74
2022/01/26 10:57:15;;;;;;;33.50;22.67;;;3.50;99.90;;;;;;5043648;28;20544;-75
2022/01/26 10:59:44;;;;;;;34.13;21.33;;;3.70;99.90;;;;;;5043275;28;20547;-75
2022/01/26 11:02:11;;;;;;;32.83;21.23;;;3.50;99.90;;;;;;5043647;28;20436;-72
2022/01/26 11:04:39;;;;;;;32.10;21.97;;;3.20;99.90;;;;;;5039948;28;20620;-73
2022/01/26 11:07:06;;;;;;;28.30;20.10;;;3.10;99.90;;;;;;5043483;28;20453;-72
2022/01/26 11:09:35;;;;;;;36.03;21.73;;;3.10;99.90;;;;;;5043173;28;20409;-74
2022/01/26 11:12:12;;;;;;;37.53;23.83;;;2.80;99.90;;;;;;5042895;28;20476;-73
2022/01/26 11:14:39;;;;;;;43.53;24.63;;;3.00;99.90;;;;;;5043123;28;20413;-73
2022/01/26 11:17:04;;;;;;;36.07;21.90;;;3.20;99.90;;;;;;5043210;28;20936;-73
2022/01/26 11:19:40;;;;;;;30.17;20.97;;;3.40;99.90;;;;;;5043133;28;20413;-73
2022/01/26 11:22:08;;;;;;;33.67;22.20;;;3.50;99.90;;;;;;5042357;28;20194;-73
2022/01/26 11:24:42;;;;;;;41.30;25.10;;;3.40;99.90;;;;;;5043417;28;20456;-73
2022/01/26 11:27:08;;;;;;;38.93;24.77;;;3.40;99.90;;;;;;5043786;28;20608;-74
2022/01/26 11:29:37;;;;;;;37.80;24.60;;;3.50;99.90;;;;;;5043212;28;20500;-74
2022/01/26 11:32:13;;;;;;;38.43;24.17;;;3.30;99.90;;;;;;5043302;28;20199;-73
2022/01/26 11:34:39;;;;;;;44.33;27.17;;;3.00;99.90;;;;;;5030770;28;20431;-73
2022/01/26 11:37:12;;;;;;;43.07;25.77;;;3.20;99.90;;;;;;5043032;28;20413;-73
2022/01/26 11:45:17;;;;;;;37.57;22.93;;;3.40;99.90;;;;;;5042989;28;20467;-72
2022/01/26 11:47:57;;;;;;;50.37;28.60;;;3.30;99.90;;;;;;5043376;28;20412;-73
2022/01/26 11:50:24;;;;;;;44.37;26.80;;;3.20;99.90;;;;;;5043217;28;20416;-74
2022/01/26 11:53:05;;;;;;;44.00;28.13;;;3.00;99.90;;;;;;5069812;22;20524;-70
2022/01/26 11:55:34;;;;;;;49.60;29.37;;;3.10;99.90;;;;;;5035975;28;20417;-71
2022/01/26 11:58:15;;;;;;;44.00;27.87;;;3.30;99.90;;;;;;5040787;28;20475;-70
2022/01/26 12:00:58;;;;;;;47.60;27.40;;;2.90;99.90;;;;;;5020272;28;20436;-70
2022/01/26 12:03:27;;;;;;;47.53;26.63;;;2.80;99.90;;;;;;5049196;28;20556;-67
2022/01/26 12:05:56;;;;;;;47.40;27.73;;;2.60;99.90;;;;;;5047963;28;20492;-70
2022/01/26 12:08:31;;;;;;;53.10;27.53;;;2.60;99.90;;;;;;5052711;28;20443;-71
2022/01/26 12:10:57;;;;;;;41.20;26.03;;;2.70;99.90;;;;;;5054562;28;20519;-71
2022/01/26 12:13:28;;;;;;;45.97;25.07;;;2.90;99.90;;;;;;5047415;28;20429;-71
2022/01/26 12:15:58;;;;;;;45.67;26.23;;;3.00;99.90;;;;;;5043223;28;20416;-70
2022/01/26 12:36:12;;;;;;;42.93;26.50;;;2.70;99.90;;;;;;5037546;28;20397;-70
2022/01/26 12:38:16;;;;;;;37.90;25.30;;;2.80;99.90;;;;;;5024752;28;20823;-72
2022/01/26 12:43:56;;;;;;;40.03;24.00;;;2.50;99.90;;;;;;5035479;28;20477;-68
2022/01/26 12:46:29;;;;;;;41.90;24.67;;;2.60;99.90;;;;;;5031307;28;21010;-69
2022/01/26 12:49:10;;;;;;;39.00;22.70;;;2.60;99.90;;;;;;5043257;28;20400;-68
2022/01/26 12:51:54;;;;;;;45.67;25.00;;;2.70;99.90;;;;;;5012106;28;20812;-69
2022/01/26 12:54:21;;;;;;;39.77;24.07;;;2.60;99.90;;;;;;5036720;28;20433;-69
2022/01/26 12:56:47;;;;;;;42.50;25.20;;;2.60;99.90;;;;;;5035588;28;20413;-68
2022/01/26 12:59:16;;;;;;;43.10;25.50;;;2.60;99.90;;;;;;5039770;28;20416;-68
2022/01/26 13:01:45;;;;;;;39.20;23.93;;;2.60;99.90;;;;;;5041368;28;20776;-67
2022/01/26 13:04:16;;;;;;;42.70;23.50;;;2.80;99.90;;;;;;5033461;28;20445;-68
2022/01/26 13:06:51;;;;;;;42.50;25.20;;;2.90;99.90;;;;;;5034820;28;20472;-66
2022/01/26 13:09:21;;;;;;;35.90;22.90;;;3.00;99.90;;;;;;5036373;28;20463;-69
2022/01/26 13:11:48;;;;;;;38.00;23.47;;;3.10;99.90;;;;;;5044766;28;20817;-70
2022/01/26 13:14:23;;;;;;;41.30;25.30;;;3.20;99.90;;;;;;5034326;28;20975;-71
2022/01/26 13:17:32;;;;;;;36.07;23.10;;;2.90;99.90;;;;;;5035183;28;20488;-69
2022/01/26 13:23:28;;;;;;;38.33;24.20;;;2.90;99.90;;;;;;4947812;28;20985;-67
2022/01/26 13:29:24;;;;;;;35.67;21.27;;;2.90;99.90;;;;;;4957239;28;20448;-68
2022/01/26 13:35:33;;;;;;;34.53;22.87;;;2.80;99.90;;;;;;5011634;28;20416;-72
2022/01/26 13:40:40;;;;;;;37.03;24.27;;;2.90;99.90;;;;;;5034582;28;20520;-69
2022/01/26 13:59:24;;;;;;;47.67;25.53;;;2.40;99.90;;;;;;5033161;28;20410;-70
2022/01/26 14:01:51;;;;;;;43.00;24.77;;;2.60;99.90;;;;;;5041411;28;20401;-69
2022/01/26 14:04:18;;;;;;;38.47;23.10;;;2.50;99.90;;;;;;5033938;28;20532;-70
2022/01/26 14:06:45;;;;;;;40.97;23.67;;;2.40;99.90;;;;;;5034487;28;20470;-72
2022/01/26 14:09:11;;;;;;;38.47;22.57;;;2.50;99.90;;;;;;5029383;28;20445;-69
2022/01/26 14:11:37;;;;;;;38.83;21.73;;;2.50;99.90;;;;;;5037823;28;20448;-70
2022/01/26 14:14:03;;;;;;;35.27;21.43;;;2.40;99.90;;;;;;5034129;28;20207;-67
2022/01/26 14:16:36;;;;;;;34.23;21.90;;;2.40;99.90;;;;;;5036313;28;20463;-71
2022/01/26 14:21:55;;;;;;;34.60;21.50;;;2.20;99.90;;;;;;5027815;28;20487;-71
2022/01/26 14:24:52;;;;;;;34.77;19.63;;;2.30;99.90;;;;;;5036758;28;20186;-69
2022/01/26 14:27:09;;;;;;;33.70;20.23;;;2.20;99.90;;;;;;5038717;28;20417;-70
2022/01/26 14:32:27;;;;;;;32.53;18.87;;;1.90;99.90;;;;;;5034672;28;20230;-69
2022/01/26 14:40:49;;;;;;;34.83;20.73;;;1.90;99.90;;;;;;5024521;28;20660;-70
2022/01/26 15:44:51;;;;;;;33.50;19.70;;;1.70;99.90;;;;;;5030764;28;20441;-64
2022/01/26 15:52:50;;;;;;;32.63;19.20;;;1.80;99.90;;;;;;5032155;28;20457;-69
2022/01/26 15:58:15;;;;;;;29.37;18.37;;;2.00;99.90;;;;;;5040415;28;20487;-71
2022/01/26 16:06:42;;;;;;;29.13;17.00;;;2.20;99.90;;;;;;5040870;28;20407;-71
2022/01/26 17:11:37;;;;;;;40.30;21.93;;;1.90;99.90;;;;;;5036164;28;20558;-72
2022/01/26 18:26:13;;;;;;;38.97;22.60;;;2.40;99.90;;;;;;5004269;28;20472;-71
2022/01/26 18:50:13;;;;;;;38.57;22.70;;;2.20;99.90;;;;;;5004300;28;20934;-71
2022/01/26 18:52:40;;;;;;;40.33;23.30;;;2.20;99.90;;;;;;5003574;28;20446;-75
2022/01/26 18:55:07;;;;;;;36.27;23.00;;;2.20;99.90;;;;;;5004387;28;20476;-71
2022/01/26 18:57:32;;;;;;;39.07;24.57;;;2.20;99.90;;;;;;5004071;28;20441;-71
2022/01/26 18:59:58;;;;;;;37.13;23.93;;;2.20;99.90;;;;;;4999802;28;20923;-72
2022/01/26 19:02:25;;;;;;;39.67;23.80;;;2.20;99.90;;;;;;5004146;28;20197;-74
2022/01/26 19:04:51;;;;;;;39.37;24.90;;;2.30;99.90;;;;;;5003898;28;20196;-72
2022/01/26 19:07:17;;;;;;;38.67;21.60;;;2.40;99.90;;;;;;5003325;28;20784;-72
2022/01/26 19:09:46;;;;;;;32.57;21.07;;;2.30;99.90;;;;;;5003807;28;20938;-71
2022/01/26 19:12:15;;;;;;;36.13;22.50;;;2.40;99.90;;;;;;5004158;28;20441;-71
2022/01/26 19:14:46;;;;;;;39.83;23.43;;;2.40;99.90;;;;;;5004146;28;20419;-72
2022/01/26 19:17:21;;;;;;;34.70;21.40;;;2.30;99.90;;;;;;5004329;28;20780;-74
2022/01/26 19:25:41;;;;;;;45.07;24.43;;;2.50;99.90;;;;;;4949632;28;20496;-67
2022/01/26 19:44:19;;;;;;;36.23;21.97;;;2.50;99.90;;;;;;5003545;28;20973;-68
2022/01/26 19:47:14;;;;;;;38.87;22.23;;;2.50;99.90;;;;;;5003194;28;20410;-70
2022/01/26 19:52:21;;;;;;;36.43;22.70;;;2.60;99.90;;;;;;5002062;28;20954;-69
2022/01/26 19:54:49;;;;;;;38.47;21.97;;;2.50;99.90;;;;;;5003783;28;20426;-73
2022/01/26 19:57:17;;;;;;;37.53;22.17;;;2.50;99.90;;;;;;5002368;28;20180;-74
2022/01/26 19:59:42;;;;;;;31.17;20.20;;;2.60;99.90;;;;;;5004720;28;20502;-72
2022/01/26 20:02:08;;;;;;;30.73;18.83;;;2.50;99.90;;;;;;5004134;28;20506;-75
2022/01/26 20:04:34;;;;;;;39.17;21.90;;;2.70;99.90;;;;;;4995053;28;20631;-72